Time;durP1;ratioP1;P1;durP2;ratioP2;P2;SDS_P1;SDS_P2;PMS_P1;PMS_P2;Temp;Humidity;BMP_temperature;BMP_pressure;BME280_temperature;BME280_humidity;BME280_pressure;Samples;Min_cycle;Max_cycle;Signal;HPM_P1;HPM_P2
2023/05/14 00:01:39;;;;;;;14.00;11.57;;;9.10;74.60;;;;;;5111591;28;20043;-73
2023/05/14 00:04:05;;;;;;;13.93;11.77;;;9.10;73.50;;;;;;5093603;28;20028;-72
2023/05/14 00:06:33;;;;;;;13.45;11.07;;;9.20;72.80;;;;;;5108531;28;20020;-73
2023/05/14 00:08:59;;;;;;;12.77;10.65;;;9.30;72.10;;;;;;5092202;28;20032;-74
2023/05/14 00:11:25;;;;;;;14.60;10.40;;;9.30;72.50;;;;;;5102156;28;20026;-73
2023/05/14 00:13:51;;;;;;;14.55;11.30;;;9.30;72.80;;;;;;5102814;28;20089;-73
2023/05/14 00:16:16;;;;;;;13.38;10.25;;;9.30;74.00;;;;;;5111577;28;20027;-72
2023/05/14 00:18:42;;;;;;;12.65;9.10;;;9.10;75.10;;;;;;5105910;28;20134;-72
2023/05/14 00:21:08;;;;;;;13.20;9.63;;;9.00;75.00;;;;;;5096413;28;20374;-73
2023/05/14 00:23:33;;;;;;;13.13;10.85;;;8.90;75.20;;;;;;5097684;28;20400;-73
2023/05/14 00:25:59;;;;;;;17.70;13.63;;;8.90;74.40;;;;;;5115001;28;20020;-73
2023/05/14 00:28:25;;;;;;;14.55;11.68;;;8.80;74.60;;;;;;5098049;28;20020;-73
2023/05/14 00:30:51;;;;;;;14.73;11.68;;;8.80;73.80;;;;;;5115904;28;20080;-73
2023/05/14 00:33:17;;;;;;;14.15;11.18;;;8.70;73.40;;;;;;5116004;28;20023;-73
2023/05/14 00:35:42;;;;;;;12.00;9.57;;;8.70;73.40;;;;;;5115705;28;20112;-73
2023/05/14 00:38:09;;;;;;;14.30;10.25;;;8.60;73.10;;;;;;5114620;28;20024;-72
2023/05/14 00:40:35;;;;;;;14.32;10.70;;;8.60;73.50;;;;;;5115189;28;20023;-73
2023/05/14 00:43:00;;;;;;;15.98;12.23;;;8.50;73.30;;;;;;5094367;28;20031;-72
2023/05/14 00:45:27;;;;;;;17.83;13.13;;;8.40;73.00;;;;;;5095449;28;20401;-73
2023/05/14 00:47:53;;;;;;;14.40;11.43;;;8.40;72.00;;;;;;5103483;28;20032;-72
2023/05/14 00:50:19;;;;;;;15.70;12.27;;;8.30;71.50;;;;;;5102238;28;20115;-73
2023/05/14 00:52:46;;;;;;;16.40;13.13;;;8.30;70.90;;;;;;5113606;28;20032;-73
2023/05/14 00:55:15;;;;;;;18.88;13.80;;;8.30;69.70;;;;;;5092154;28;20702;-73
2023/05/14 00:57:41;;;;;;;17.42;13.20;;;8.40;68.40;;;;;;5110115;28;20043;-72
2023/05/14 01:00:08;;;;;;;18.70;14.02;;;8.50;68.10;;;;;;5114899;28;20034;-73
2023/05/14 01:02:33;;;;;;;18.33;12.93;;;8.50;67.80;;;;;;5114086;28;20032;-73
2023/05/14 01:05:00;;;;;;;16.25;11.45;;;8.60;67.60;;;;;;5112861;28;20050;-73
2023/05/14 01:08:11;;;;;;;12.38;9.93;;;8.60;67.70;;;;;;5110471;28;20024;-73
2023/05/14 01:10:46;;;;;;;16.58;12.52;;;8.60;67.60;;;;;;4994627;28;20031;-73
2023/05/14 01:13:24;;;;;;;17.55;13.68;;;8.60;67.30;;;;;;5011122;28;20037;-73
2023/05/14 01:15:52;;;;;;;18.90;14.05;;;8.70;66.90;;;;;;5063587;28;20344;-73
2023/05/14 01:18:20;;;;;;;15.13;11.73;;;8.70;67.20;;;;;;5112383;28;20031;-73
2023/05/14 01:20:51;;;;;;;14.10;11.18;;;8.70;67.10;;;;;;5115644;28;20030;-72
2023/05/14 01:23:16;;;;;;;16.13;11.85;;;8.70;67.80;;;;;;5114320;28;20058;-73
2023/05/14 01:25:42;;;;;;;18.98;14.60;;;8.70;67.40;;;;;;5115074;28;20095;-73
2023/05/14 01:28:19;;;;;;;20.83;15.55;;;8.70;67.40;;;;;;5115541;28;20020;-73
2023/05/14 01:31:16;;;;;;;26.17;14.63;;;8.70;67.40;;;;;;5115557;28;20020;-73
2023/05/14 01:33:43;;;;;;;18.65;13.70;;;8.70;67.00;;;;;;5114976;28;20040;-73
2023/05/14 01:36:09;;;;;;;17.90;13.63;;;8.70;66.50;;;;;;5100918;28;20043;-73
2023/05/14 01:38:36;;;;;;;17.00;13.05;;;8.70;66.40;;;;;;5100033;28;20093;-73
2023/05/14 01:41:02;;;;;;;16.25;11.93;;;8.70;66.50;;;;;;5119124;28;20020;-72
2023/05/14 01:43:28;;;;;;;15.73;11.52;;;8.70;66.60;;;;;;5100757;28;20027;-72
2023/05/14 01:45:54;;;;;;;15.50;11.68;;;8.70;66.80;;;;;;5118816;28;20074;-73
2023/05/14 01:48:20;;;;;;;13.02;10.88;;;8.70;66.50;;;;;;5118431;28;20051;-73
2023/05/14 01:50:46;;;;;;;21.95;14.65;;;8.70;66.40;;;;;;5117735;28;20030;-72
2023/05/14 01:53:12;;;;;;;17.33;13.25;;;8.70;66.90;;;;;;5094024;28;20324;-73
2023/05/14 01:55:37;;;;;;;16.50;13.02;;;8.70;66.20;;;;;;5116353;28;20062;-73
2023/05/14 01:58:03;;;;;;;15.20;12.45;;;8.80;66.00;;;;;;5115366;28;20027;-73
2023/05/14 02:00:29;;;;;;;16.95;12.68;;;8.80;65.90;;;;;;5098886;28;20024;-73
2023/05/14 02:02:55;;;;;;;15.38;12.07;;;8.80;66.50;;;;;;5109774;28;20039;-73
2023/05/14 02:05:21;;;;;;;15.20;11.70;;;8.80;66.70;;;;;;5113212;28;20028;-73
2023/05/14 02:07:46;;;;;;;16.88;12.88;;;8.80;67.70;;;;;;5111199;28;20028;-73
2023/05/14 02:10:13;;;;;;;19.58;15.00;;;8.70;67.40;;;;;;5116234;28;20042;-73
2023/05/14 02:12:39;;;;;;;16.63;12.48;;;8.70;67.00;;;;;;5112697;28;20068;-73
2023/05/14 02:15:07;;;;;;;18.08;13.23;;;8.70;66.10;;;;;;5116600;28;20420;-73
2023/05/14 02:17:33;;;;;;;14.40;10.90;;;8.80;65.40;;;;;;5113273;28;20024;-73
2023/05/14 02:19:59;;;;;;;12.27;9.95;;;9.00;65.20;;;;;;5094444;28;20095;-73
2023/05/14 02:22:24;;;;;;;12.13;10.30;;;9.00;66.10;;;;;;5115513;28;20103;-73
2023/05/14 02:24:50;;;;;;;11.65;9.23;;;9.00;65.90;;;;;;5117382;28;20019;-73
2023/05/14 02:27:16;;;;;;;12.57;9.75;;;9.10;65.90;;;;;;5117278;28;20099;-73
2023/05/14 02:29:42;;;;;;;16.55;11.57;;;9.10;66.20;;;;;;5101765;28;20019;-73
2023/05/14 02:32:07;;;;;;;14.60;11.52;;;9.20;67.60;;;;;;5117562;28;20020;-73
2023/05/14 02:34:33;;;;;;;16.63;12.18;;;9.20;67.60;;;;;;5115924;28;20039;-73
2023/05/14 02:36:59;;;;;;;17.52;12.43;;;9.20;67.40;;;;;;5114581;28;20024;-73
2023/05/14 02:39:25;;;;;;;14.52;11.98;;;9.20;68.10;;;;;;5115814;28;20052;-73
2023/05/14 02:41:51;;;;;;;13.05;9.63;;;9.20;68.40;;;;;;5116556;28;20111;-73
2023/05/14 02:44:17;;;;;;;14.75;10.23;;;9.20;68.70;;;;;;5117864;28;20028;-73
2023/05/14 02:46:42;;;;;;;12.43;10.27;;;9.30;68.80;;;;;;5116939;28;20072;-73
2023/05/14 02:49:08;;;;;;;12.60;9.07;;;9.30;69.20;;;;;;5096654;28;20050;-73
2023/05/14 02:51:35;;;;;;;15.10;10.65;;;9.30;69.30;;;;;;5116931;28;20031;-73
2023/05/14 02:54:01;;;;;;;14.50;11.73;;;9.40;70.00;;;;;;5115164;28;20024;-73
2023/05/14 02:56:27;;;;;;;15.50;12.52;;;9.40;70.30;;;;;;5112828;28;20336;-73
2023/05/14 02:58:52;;;;;;;15.85;12.98;;;9.50;70.80;;;;;;5093186;28;20032;-73
2023/05/14 03:01:18;;;;;;;16.27;10.75;;;9.50;71.90;;;;;;5092625;28;20035;-73
2023/05/14 03:03:47;;;;;;;12.40;10.60;;;9.60;72.20;;;;;;5111491;28;20040;-74
2023/05/14 03:06:12;;;;;;;13.05;10.98;;;9.60;73.00;;;;;;5115206;28;20464;-73
2023/05/14 03:08:38;;;;;;;13.77;11.25;;;9.60;73.80;;;;;;5112367;28;20183;-73
2023/05/14 03:11:05;;;;;;;21.35;16.63;;;9.60;75.70;;;;;;5116106;28;20020;-73
2023/05/14 03:13:31;;;;;;;17.20;13.95;;;9.50;75.20;;;;;;5110351;28;20052;-73
2023/05/14 03:15:57;;;;;;;16.00;13.27;;;9.60;74.70;;;;;;5115631;28;20024;-73
2023/05/14 03:18:24;;;;;;;14.75;12.25;;;9.50;75.10;;;;;;5109269;28;20027;-74
2023/05/14 03:20:50;;;;;;;21.55;15.93;;;9.40;75.00;;;;;;5113151;28;20373;-73
2023/05/14 03:23:15;;;;;;;15.70;13.35;;;9.40;74.60;;;;;;5112015;28;20023;-73
2023/05/14 03:25:41;;;;;;;24.67;17.40;;;9.40;73.50;;;;;;5113755;28;20185;-73
2023/05/14 03:28:07;;;;;;;18.55;15.45;;;9.50;73.80;;;;;;5113573;28;20074;-73
2023/05/14 03:30:33;;;;;;;16.52;14.13;;;9.50;74.20;;;;;;5114656;28;20024;-73
2023/05/14 03:32:59;;;;;;;22.25;17.55;;;9.60;74.00;;;;;;5095632;28;20114;-73
2023/05/14 03:35:25;;;;;;;23.73;18.98;;;9.60;73.90;;;;;;5114268;28;20023;-73
2023/05/14 03:37:51;;;;;;;24.38;19.90;;;9.60;74.80;;;;;;5112621;28;20038;-73
2023/05/14 03:40:17;;;;;;;27.60;21.63;;;9.60;74.20;;;;;;5106822;28;20370;-73
2023/05/14 03:42:43;;;;;;;26.83;22.50;;;9.70;74.30;;;;;;5096983;28;20028;-73
2023/05/14 03:45:09;;;;;;;26.33;22.02;;;9.60;75.20;;;;;;5116048;28;20023;-73
2023/05/14 03:47:35;;;;;;;23.10;19.23;;;9.70;75.50;;;;;;5114200;28;20019;-73
2023/05/14 03:50:01;;;;;;;32.15;22.45;;;9.70;74.40;;;;;;5105171;28;20022;-73
2023/05/14 03:52:26;;;;;;;23.58;20.13;;;9.70;75.10;;;;;;5108131;28;20373;-73
2023/05/14 03:54:52;;;;;;;24.40;20.58;;;9.80;75.00;;;;;;5114186;28;20035;-73
2023/05/14 03:57:18;;;;;;;25.70;19.75;;;9.80;75.40;;;;;;5113807;28;20115;-73
2023/05/14 03:59:44;;;;;;;30.05;22.15;;;9.80;75.30;;;;;;5111904;28;20039;-73
2023/05/14 04:02:09;;;;;;;29.75;22.73;;;9.90;76.10;;;;;;5113523;28;20038;-73
2023/05/14 04:04:35;;;;;;;33.38;27.13;;;9.90;76.40;;;;;;5095148;28;20102;-73
2023/05/14 04:07:01;;;;;;;35.38;27.33;;;9.80;77.90;;;;;;5104204;28;20086;-73
2023/05/14 04:09:27;;;;;;;31.02;24.42;;;9.70;77.00;;;;;;5111878;28;20027;-73
2023/05/14 04:11:52;;;;;;;34.20;24.98;;;9.60;76.10;;;;;;5113781;28;20404;-73
2023/05/14 04:14:19;;;;;;;35.80;27.90;;;9.60;74.40;;;;;;5115917;28;20016;-73
2023/05/14 04:16:44;;;;;;;40.80;29.35;;;9.60;74.50;;;;;;5112880;28;20024;-73
2023/05/14 04:19:10;;;;;;;46.78;39.00;;;9.50;73.80;;;;;;5112642;28;20373;-73
2023/05/14 04:21:36;;;;;;;33.83;24.98;;;9.50;72.80;;;;;;5103878;28;20028;-74
2023/05/14 04:24:02;;;;;;;36.17;24.75;;;9.60;71.40;;;;;;5115063;28;20138;-73
2023/05/14 04:26:27;;;;;;;30.95;23.42;;;9.50;71.60;;;;;;5116213;28;20047;-73
2023/05/14 04:28:53;;;;;;;35.50;25.15;;;9.60;70.70;;;;;;5098187;28;20020;-73
2023/05/14 04:31:19;;;;;;;38.35;28.63;;;9.60;70.20;;;;;;5115291;28;20035;-73
2023/05/14 04:33:45;;;;;;;34.30;25.02;;;9.70;71.80;;;;;;5116085;28;20489;-73
2023/05/14 04:36:12;;;;;;;33.72;25.23;;;9.70;71.40;;;;;;5114428;28;20644;-73
2023/05/14 04:38:37;;;;;;;28.83;22.98;;;9.70;72.20;;;;;;5096010;28;20020;-73
2023/05/14 04:41:03;;;;;;;41.55;29.60;;;9.70;71.40;;;;;;5116154;28;20026;-73
2023/05/14 04:43:29;;;;;;;41.30;30.55;;;9.80;71.90;;;;;;5097858;28;20102;-73
2023/05/14 04:45:55;;;;;;;33.22;25.95;;;9.70;73.80;;;;;;5114781;28;20034;-73
2023/05/14 04:48:20;;;;;;;33.17;26.15;;;9.70;72.20;;;;;;5114888;28;20066;-73
2023/05/14 04:50:46;;;;;;;48.58;32.25;;;9.80;73.10;;;;;;5112126;28;20028;-73
2023/05/14 04:53:11;;;;;;;43.08;30.65;;;9.80;74.00;;;;;;5111929;28;20050;-73
2023/05/14 04:55:37;;;;;;;43.25;29.67;;;9.70;73.80;;;;;;5114164;28;20036;-73
2023/05/14 04:58:02;;;;;;;34.63;25.65;;;9.70;73.70;;;;;;5113347;28;20031;-73
2023/05/14 05:00:29;;;;;;;50.92;32.45;;;9.70;72.00;;;;;;5112148;28;20438;-73
2023/05/14 05:02:54;;;;;;;36.78;26.60;;;9.70;72.90;;;;;;5102546;28;20111;-73
2023/05/14 05:05:20;;;;;;;48.85;32.85;;;9.70;71.80;;;;;;5108836;28;20225;-73
2023/05/14 05:07:46;;;;;;;32.58;24.88;;;9.70;72.10;;;;;;5107000;28;20030;-73
2023/05/14 05:10:12;;;;;;;40.08;27.95;;;9.80;71.40;;;;;;5115559;28;20023;-72
2023/05/14 05:12:37;;;;;;;32.95;24.25;;;9.90;71.90;;;;;;5117279;28;20051;-73
2023/05/14 05:15:04;;;;;;;38.42;27.05;;;10.00;72.90;;;;;;5116246;28;20477;-73
2023/05/14 05:17:29;;;;;;;38.75;27.58;;;10.10;74.70;;;;;;5116550;28;20035;-73
2023/05/14 05:19:55;;;;;;;35.92;27.45;;;10.10;75.10;;;;;;5116303;28;20027;-73
2023/05/14 05:22:21;;;;;;;39.53;28.08;;;10.20;76.00;;;;;;5113695;28;20027;-73
2023/05/14 05:24:47;;;;;;;41.85;29.92;;;10.20;78.40;;;;;;5112560;28;20080;-72
2023/05/14 05:27:13;;;;;;;37.25;27.25;;;10.10;78.80;;;;;;5119157;28;20020;-73
2023/05/14 05:29:38;;;;;;;38.60;27.77;;;10.20;77.50;;;;;;5119320;28;20107;-73
2023/05/14 05:32:05;;;;;;;30.95;23.48;;;10.30;78.40;;;;;;5114520;28;20164;-72
2023/05/14 05:34:30;;;;;;;39.55;28.83;;;10.30;78.20;;;;;;5118521;28;20102;-73
2023/05/14 05:36:56;;;;;;;32.22;22.60;;;10.30;80.40;;;;;;5111213;28;20115;-73
2023/05/14 05:39:24;;;;;;;31.23;23.52;;;10.40;79.30;;;;;;5117176;28;20028;-74
2023/05/14 05:41:50;;;;;;;39.22;28.48;;;10.60;80.90;;;;;;5111706;28;20039;-73
2023/05/14 05:44:16;;;;;;;41.55;30.23;;;10.70;83.20;;;;;;5118532;28;20020;-72
2023/05/14 05:46:41;;;;;;;38.00;27.73;;;10.60;84.20;;;;;;5118850;28;20297;-72
2023/05/14 05:49:10;;;;;;;29.70;23.75;;;10.60;81.20;;;;;;5116341;28;20080;-72
2023/05/14 05:51:35;;;;;;;28.73;22.50;;;10.80;82.00;;;;;;5100707;28;20085;-72
2023/05/14 05:54:01;;;;;;;36.03;25.40;;;11.00;84.10;;;;;;5114241;28;20135;-73
2023/05/14 05:56:26;;;;;;;31.60;23.10;;;11.10;87.80;;;;;;5110108;28;20040;-73
2023/05/14 05:58:52;;;;;;;26.88;20.42;;;11.00;88.40;;;;;;5091014;28;20032;-73
2023/05/14 06:01:17;;;;;;;29.35;21.83;;;11.00;88.10;;;;;;5112746;28;20054;-73
2023/05/14 06:03:43;;;;;;;27.02;21.08;;;11.10;88.30;;;;;;5109476;28;20063;-73
2023/05/14 06:06:11;;;;;;;25.08;19.20;;;11.10;88.90;;;;;;5106527;27;20316;-73
2023/05/14 06:08:37;;;;;;;28.05;21.58;;;11.00;89.20;;;;;;5103729;28;20020;-73
2023/05/14 06:11:04;;;;;;;27.58;20.92;;;10.90;89.00;;;;;;5114259;28;20327;-73
2023/05/14 06:13:29;;;;;;;24.17;18.42;;;10.80;88.40;;;;;;5100884;28;20371;-72
2023/05/14 06:15:55;;;;;;;21.70;17.45;;;10.80;87.70;;;;;;5114877;28;20057;-72
2023/05/14 06:18:20;;;;;;;22.77;18.98;;;10.90;86.60;;;;;;5105575;28;20027;-73
2023/05/14 06:20:46;;;;;;;21.48;16.40;;;11.10;87.30;;;;;;5113595;28;20036;-73
2023/05/14 06:23:11;;;;;;;23.70;19.38;;;11.30;88.10;;;;;;5107357;28;20020;-73
2023/05/14 06:25:37;;;;;;;23.83;18.40;;;11.40;90.80;;;;;;5108384;27;20102;-73
2023/05/14 06:28:03;;;;;;;23.30;18.73;;;11.40;92.00;;;;;;5109704;28;20361;-73
2023/05/14 06:30:28;;;;;;;22.80;18.45;;;11.50;91.50;;;;;;5106629;28;20019;-73
2023/05/14 06:32:54;;;;;;;24.67;19.52;;;11.50;91.40;;;;;;5110177;28;20320;-73
2023/05/14 06:35:20;;;;;;;24.80;19.77;;;11.50;92.00;;;;;;5114199;28;20023;-73
2023/05/14 06:37:45;;;;;;;20.60;15.80;;;11.40;92.00;;;;;;5108548;28;20042;-73
2023/05/14 06:40:14;;;;;;;20.30;15.20;;;11.50;92.70;;;;;;5112943;28;20035;-73
2023/05/14 06:42:40;;;;;;;17.85;15.02;;;11.50;93.30;;;;;;5115935;28;20034;-72
2023/05/14 06:45:06;;;;;;;19.33;16.67;;;11.60;93.70;;;;;;5114778;28;20032;-73
2023/05/14 06:47:32;;;;;;;24.17;18.10;;;11.60;94.10;;;;;;5115877;28;20024;-73
2023/05/14 06:49:58;;;;;;;21.15;16.55;;;11.50;94.00;;;;;;5111125;28;20034;-73
2023/05/14 06:52:24;;;;;;;21.17;17.83;;;11.40;93.30;;;;;;5115099;28;20160;-73
2023/05/14 06:54:50;;;;;;;20.92;17.45;;;11.30;92.80;;;;;;5112320;28;20107;-73
2023/05/14 06:57:15;;;;;;;19.42;15.32;;;11.10;90.90;;;;;;5111709;28;20061;-73
2023/05/14 06:59:41;;;;;;;19.58;15.10;;;11.00;89.60;;;;;;5114831;28;20093;-73
2023/05/14 07:02:07;;;;;;;23.65;18.50;;;11.10;89.60;;;;;;5115609;28;20103;-73
2023/05/14 07:04:32;;;;;;;22.77;18.38;;;11.10;90.50;;;;;;5114665;28;20297;-73
2023/05/14 07:06:58;;;;;;;24.33;17.73;;;11.00;89.50;;;;;;5112755;28;20024;-73
2023/05/14 07:09:23;;;;;;;20.27;17.25;;;11.00;88.30;;;;;;5114428;28;20095;-73
2023/05/14 07:11:49;;;;;;;19.27;15.57;;;11.10;88.50;;;;;;5096898;28;20027;-73
2023/05/14 07:14:14;;;;;;;16.85;14.35;;;11.30;89.80;;;;;;5095307;28;20573;-73
2023/05/14 07:16:41;;;;;;;17.73;14.55;;;11.50;90.60;;;;;;5116279;28;20098;-72
2023/05/14 07:19:06;;;;;;;16.52;13.95;;;11.80;92.50;;;;;;5111500;28;20431;-73
2023/05/14 07:21:33;;;;;;;15.95;13.57;;;12.00;94.00;;;;;;5110144;28;20031;-73
2023/05/14 07:23:59;;;;;;;17.38;14.15;;;12.00;94.80;;;;;;5113089;28;20023;-72
2023/05/14 07:26:25;;;;;;;18.02;15.32;;;12.20;95.30;;;;;;5107953;28;20053;-73
2023/05/14 07:28:50;;;;;;;17.08;14.80;;;12.30;95.90;;;;;;5108532;28;20415;-73
2023/05/14 07:31:16;;;;;;;18.17;14.32;;;12.30;96.80;;;;;;5113022;28;20023;-73
2023/05/14 07:33:41;;;;;;;16.63;14.27;;;12.20;97.70;;;;;;5114118;28;20027;-73
2023/05/14 07:36:07;;;;;;;18.33;13.88;;;12.20;96.40;;;;;;5112619;28;20035;-72
2023/05/14 07:38:33;;;;;;;17.10;13.85;;;12.20;96.00;;;;;;5111437;28;20023;-72
2023/05/14 07:40:59;;;;;;;20.95;17.73;;;12.40;97.10;;;;;;5114632;28;20051;-74
2023/05/14 07:43:25;;;;;;;23.40;17.20;;;12.70;97.70;;;;;;5109727;28;20023;-73
2023/05/14 07:45:50;;;;;;;19.95;16.55;;;13.00;98.00;;;;;;5110939;28;20030;-72
2023/05/14 07:48:16;;;;;;;20.10;16.77;;;13.00;98.00;;;;;;5115752;28;20023;-73
2023/05/14 07:50:42;;;;;;;19.15;16.10;;;13.00;98.00;;;;;;5111362;28;20080;-73
2023/05/14 07:53:07;;;;;;;17.23;14.73;;;13.20;98.00;;;;;;5108749;28;20032;-74
2023/05/14 07:55:33;;;;;;;18.27;15.20;;;13.40;98.00;;;;;;5108745;28;20027;-74
2023/05/14 07:57:58;;;;;;;20.67;16.23;;;13.50;98.00;;;;;;5110813;28;20472;-72
2023/05/14 08:00:24;;;;;;;18.35;15.65;;;13.50;98.00;;;;;;5110802;28;20027;-72
2023/05/14 08:02:50;;;;;;;21.80;17.77;;;13.70;98.00;;;;;;5106184;28;20468;-74
2023/05/14 08:05:16;;;;;;;18.35;14.55;;;13.60;98.00;;;;;;5110559;28;20100;-73
2023/05/14 08:07:42;;;;;;;17.00;14.20;;;13.60;98.00;;;;;;5094802;28;20031;-74
2023/05/14 08:10:08;;;;;;;17.45;14.77;;;13.70;98.00;;;;;;5112338;28;20019;-73
2023/05/14 08:12:34;;;;;;;18.30;15.02;;;13.80;98.00;;;;;;5086847;28;20462;-72
2023/05/14 08:14:59;;;;;;;19.00;16.05;;;14.00;98.00;;;;;;5104870;28;20063;-73
2023/05/14 08:17:25;;;;;;;21.00;16.80;;;13.60;98.00;;;;;;5109325;28;20035;-73
2023/05/14 08:19:51;;;;;;;22.25;17.85;;;13.10;98.00;;;;;;5109144;28;20445;-72
2023/05/14 08:22:16;;;;;;;20.63;17.05;;;12.60;98.00;;;;;;5107959;28;20038;-73
2023/05/14 08:24:42;;;;;;;18.27;15.75;;;12.60;97.80;;;;;;5105828;28;20016;-73
2023/05/14 08:27:08;;;;;;;23.67;18.50;;;12.70;97.80;;;;;;5112017;28;20440;-73
2023/05/14 08:29:34;;;;;;;22.25;17.95;;;12.70;98.00;;;;;;5082276;28;20324;-73
2023/05/14 08:32:00;;;;;;;19.35;15.02;;;12.60;97.40;;;;;;5111188;28;20016;-73
2023/05/14 08:34:26;;;;;;;16.90;14.32;;;12.90;98.00;;;;;;5113736;28;20061;-73
2023/05/14 08:36:52;;;;;;;17.13;14.48;;;13.40;98.00;;;;;;5113475;28;20016;-72
2023/05/14 08:39:17;;;;;;;16.23;14.00;;;13.80;98.00;;;;;;5092029;28;20363;-72
2023/05/14 08:41:44;;;;;;;17.40;13.35;;;13.90;98.00;;;;;;5108792;28;20028;-73
2023/05/14 08:44:37;;;;;;;19.13;15.55;;;13.90;98.00;;;;;;5110699;28;20023;-73
2023/05/14 08:47:04;;;;;;;18.70;14.65;;;14.10;98.00;;;;;;5113153;28;20027;-73
2023/05/14 08:49:40;;;;;;;19.90;15.55;;;14.30;98.00;;;;;;5097982;28;20022;-72
2023/05/14 08:52:07;;;;;;;14.10;11.65;;;14.60;97.80;;;;;;5096781;28;20063;-74
2023/05/14 08:54:33;;;;;;;15.75;12.52;;;14.60;97.70;;;;;;5109244;28;20020;-74
2023/05/14 08:56:58;;;;;;;18.30;14.30;;;15.00;97.20;;;;;;5113780;28;20131;-74
2023/05/14 08:59:24;;;;;;;16.95;12.73;;;15.20;96.70;;;;;;5095777;28;21844;-73
2023/05/14 09:01:54;;;;;;;18.27;13.43;;;15.30;95.80;;;;;;5112238;28;20036;-73
2023/05/14 09:04:22;;;;;;;16.00;13.77;;;15.30;95.60;;;;;;5113993;28;20402;-73
2023/05/14 09:06:52;;;;;;;16.85;13.13;;;15.30;96.00;;;;;;5111995;28;20024;-73
2023/05/14 09:09:22;;;;;;;14.85;12.63;;;15.40;95.10;;;;;;5087265;28;20315;-74
2023/05/14 09:11:52;;;;;;;16.30;13.77;;;15.30;95.60;;;;;;5096982;28;20447;-73
2023/05/14 09:14:22;;;;;;;16.20;14.07;;;15.10;96.50;;;;;;5111735;28;20040;-73
2023/05/14 09:16:49;;;;;;;15.63;12.10;;;14.90;96.90;;;;;;5114337;28;20082;-73
2023/05/14 09:19:17;;;;;;;19.20;13.90;;;15.10;96.70;;;;;;5109255;28;20097;-73
2023/05/14 09:21:44;;;;;;;19.60;14.85;;;15.30;96.20;;;;;;5113581;28;20020;-73
2023/05/14 09:24:19;;;;;;;15.93;13.35;;;15.10;96.60;;;;;;5106997;28;20038;-73
2023/05/14 09:26:52;;;;;;;15.85;13.30;;;14.80;97.30;;;;;;5105044;28;20020;-73
2023/05/14 09:29:20;;;;;;;20.08;16.33;;;14.40;98.00;;;;;;5110793;28;20180;-73
2023/05/14 09:31:50;;;;;;;18.60;15.00;;;13.90;98.00;;;;;;5109127;27;20365;-75
2023/05/14 09:34:31;;;;;;;17.27;14.55;;;13.40;98.00;;;;;;5089416;28;20020;-73
2023/05/14 09:37:02;;;;;;;17.23;14.50;;;13.50;98.00;;;;;;5091202;28;20019;-73
2023/05/14 09:39:28;;;;;;;19.10;15.55;;;13.30;98.00;;;;;;5090738;28;20550;-73
2023/05/14 09:41:54;;;;;;;14.73;12.48;;;13.40;98.00;;;;;;5113596;28;20071;-73
2023/05/14 09:44:26;;;;;;;15.02;12.43;;;13.90;98.00;;;;;;5113375;28;20381;-73
2023/05/14 09:46:52;;;;;;;15.63;13.00;;;14.40;98.00;;;;;;5109789;28;20047;-73
2023/05/14 09:49:18;;;;;;;15.98;13.13;;;14.60;97.70;;;;;;5115404;28;20083;-73
2023/05/14 09:51:43;;;;;;;15.23;12.63;;;14.30;97.50;;;;;;5113176;28;20357;-73
2023/05/14 09:54:09;;;;;;;16.52;14.32;;;14.20;97.60;;;;;;5114667;28;20031;-73
2023/05/14 09:56:36;;;;;;;16.52;14.55;;;14.20;98.00;;;;;;5113388;28;20038;-73
2023/05/14 09:59:02;;;;;;;19.08;15.05;;;13.90;98.00;;;;;;5114252;27;20035;-73
2023/05/14 10:01:29;;;;;;;16.58;13.73;;;13.50;98.00;;;;;;5116668;28;20408;-73
2023/05/14 10:03:56;;;;;;;16.13;12.98;;;13.50;98.00;;;;;;5117652;28;20424;-73
2023/05/14 10:06:31;;;;;;;14.00;11.88;;;13.70;98.00;;;;;;5116697;28;20032;-73
2023/05/14 10:09:01;;;;;;;15.38;13.20;;;14.20;98.00;;;;;;5111939;28;20111;-73
2023/05/14 10:11:31;;;;;;;17.35;13.13;;;14.60;97.10;;;;;;5115920;28;20027;-73
2023/05/14 10:14:06;;;;;;;17.13;12.30;;;14.50;96.90;;;;;;5117751;28;20374;-73
2023/05/14 10:16:36;;;;;;;16.45;13.45;;;14.50;97.10;;;;;;5117414;28;20036;-73
2023/05/14 10:19:08;;;;;;;17.75;14.00;;;14.60;97.00;;;;;;5096844;28;20031;-73
2023/05/14 10:21:36;;;;;;;14.43;11.60;;;14.50;97.10;;;;;;5117194;28;20032;-73
2023/05/14 10:24:08;;;;;;;17.02;13.68;;;14.80;96.60;;;;;;5115319;28;20035;-73
2023/05/14 10:26:38;;;;;;;19.95;14.10;;;15.00;96.10;;;;;;5116668;27;20024;-73
2023/05/14 10:29:08;;;;;;;16.92;13.27;;;15.00;95.90;;;;;;5113568;28;20313;-73
2023/05/14 10:31:54;;;;;;;15.98;12.93;;;15.00;96.10;;;;;;5113661;27;20108;-73
2023/05/14 10:34:42;;;;;;;15.98;12.98;;;15.00;96.40;;;;;;5114223;28;20028;-73
2023/05/14 10:37:16;;;;;;;12.77;10.02;;;15.70;96.10;;;;;;5115090;28;20050;-74
2023/05/14 10:39:48;;;;;;;13.93;11.30;;;17.00;92.30;;;;;;5108379;27;20030;-73
2023/05/14 10:42:23;;;;;;;11.05;9.68;;;17.90;88.90;;;;;;5120605;27;20024;-73
2023/05/14 10:44:57;;;;;;;14.18;10.57;;;18.80;86.60;;;;;;5113725;28;20032;-73
2023/05/14 10:47:29;;;;;;;11.02;9.35;;;19.50;83.00;;;;;;5117968;28;20051;-73
2023/05/14 10:49:57;;;;;;;11.35;9.90;;;19.30;83.40;;;;;;5097723;28;20028;-73
2023/05/14 10:52:23;;;;;;;11.50;9.93;;;19.10;82.40;;;;;;5107082;27;20024;-73
2023/05/14 10:55:01;;;;;;;12.20;10.30;;;18.60;83.70;;;;;;5115430;28;20059;-73
2023/05/14 10:57:28;;;;;;;16.75;11.40;;;18.40;85.40;;;;;;5116658;27;20428;-73
2023/05/14 10:59:56;;;;;;;11.80;9.57;;;17.80;86.70;;;;;;5115165;28;20034;-74
2023/05/14 11:02:35;;;;;;;13.05;10.52;;;17.00;88.50;;;;;;5115475;28;20042;-73
2023/05/14 11:05:04;;;;;;;13.48;10.40;;;17.50;90.00;;;;;;5113571;28;20439;-73
2023/05/14 11:07:35;;;;;;;11.20;8.48;;;17.40;88.20;;;;;;5115584;28;20431;-73
2023/05/14 11:10:08;;;;;;;11.85;9.85;;;17.30;88.10;;;;;;5115131;28;20039;-73
2023/05/14 11:12:36;;;;;;;12.55;10.82;;;17.80;87.40;;;;;;5116441;28;20028;-73
2023/05/14 11:15:05;;;;;;;12.70;10.13;;;18.00;85.50;;;;;;5116793;28;20032;-73
2023/05/14 11:17:30;;;;;;;11.40;9.75;;;17.80;87.10;;;;;;5094565;28;20501;-72
2023/05/14 11:19:58;;;;;;;11.07;8.98;;;17.80;87.10;;;;;;5116734;28;20027;-73
2023/05/14 11:22:24;;;;;;;11.32;9.60;;;18.40;85.20;;;;;;5115137;28;20039;-73
2023/05/14 11:24:53;;;;;;;11.75;9.63;;;18.30;84.60;;;;;;5112099;28;20027;-72
2023/05/14 11:27:20;;;;;;;10.20;8.27;;;18.00;85.80;;;;;;5115272;28;20027;-72
2023/05/14 11:29:46;;;;;;;10.77;9.27;;;17.30;86.70;;;;;;5113917;28;20106;-73
2023/05/14 11:32:14;;;;;;;12.82;7.65;;;17.20;87.40;;;;;;5115016;28;20415;-72
2023/05/14 11:34:41;;;;;;;10.18;7.32;;;17.30;88.30;;;;;;5115830;28;20028;-71
2023/05/14 11:37:08;;;;;;;13.43;8.10;;;17.70;86.80;;;;;;5115807;28;20407;-72
2023/05/14 11:39:36;;;;;;;9.95;6.97;;;18.00;85.90;;;;;;5114650;28;20098;-73
2023/05/14 11:42:03;;;;;;;9.35;6.88;;;18.20;85.70;;;;;;5095667;28;20496;-73
2023/05/14 11:44:28;;;;;;;8.40;6.35;;;18.70;85.00;;;;;;5115470;28;20447;-73
2023/05/14 11:46:55;;;;;;;8.95;6.05;;;19.10;83.20;;;;;;5114703;28;20033;-74
2023/05/14 11:49:28;;;;;;;8.93;6.28;;;19.80;80.30;;;;;;5113581;28;20039;-74
2023/05/14 11:52:01;;;;;;;9.07;5.78;;;20.10;81.10;;;;;;5114883;28;20026;-74
2023/05/14 11:54:27;;;;;;;8.00;5.95;;;20.20;78.60;;;;;;5107174;28;20019;-74
2023/05/14 11:56:54;;;;;;;7.95;5.28;;;20.50;79.30;;;;;;5120541;27;20031;-73
2023/05/14 11:59:20;;;;;;;8.00;5.75;;;20.40;76.90;;;;;;5115551;28;20019;-74
2023/05/14 12:01:51;;;;;;;8.20;5.18;;;20.20;77.80;;;;;;5116723;28;20412;-74
2023/05/14 12:04:21;;;;;;;7.00;5.47;;;20.00;79.30;;;;;;5115618;28;20107;-73
2023/05/14 12:06:47;;;;;;;8.85;6.30;;;19.80;79.10;;;;;;5115453;28;20038;-73
2023/05/14 12:09:16;;;;;;;9.20;6.15;;;20.00;79.90;;;;;;5113547;28;20149;-74
2023/05/14 12:11:42;;;;;;;7.10;5.38;;;20.60;79.80;;;;;;5095944;28;20430;-74
2023/05/14 12:14:15;;;;;;;7.95;5.30;;;21.10;78.50;;;;;;5116363;28;20093;-73
2023/05/14 12:16:42;;;;;;;7.30;5.90;;;21.50;76.60;;;;;;5115503;28;20031;-74
2023/05/14 12:19:10;;;;;;;8.23;6.32;;;21.30;74.60;;;;;;5115163;28;20031;-73
2023/05/14 12:21:36;;;;;;;9.07;6.63;;;20.60;76.60;;;;;;5114539;28;20019;-73
2023/05/14 12:24:01;;;;;;;8.18;6.57;;;20.60;78.00;;;;;;5114290;28;20031;-73
2023/05/14 12:26:27;;;;;;;8.27;6.28;;;20.60;78.10;;;;;;5111076;28;20019;-73
2023/05/14 12:29:00;;;;;;;7.38;5.32;;;20.50;76.10;;;;;;5114213;28;20050;-74
2023/05/14 12:31:29;;;;;;;8.80;5.18;;;20.70;77.80;;;;;;5113818;28;20054;-73
2023/05/14 12:33:55;;;;;;;7.22;5.47;;;21.00;77.20;;;;;;5115989;28;20420;-73